createdAt,value
2018-11-04T00:01:20.628Z,9.40
2018-11-04T00:03:50.145Z,9.40
2018-11-04T00:06:19.614Z,9.40
2018-11-04T00:08:49.227Z,9.50
2018-11-04T00:11:18.785Z,9.50
2018-11-04T00:13:48.345Z,9.50
2018-11-04T00:16:17.848Z,9.50
2018-11-04T00:18:47.442Z,9.50
2018-11-04T00:21:16.982Z,9.50
2018-11-04T00:23:46.531Z,9.60
2018-11-04T00:26:15.966Z,9.60
2018-11-04T00:28:45.354Z,9.50
2018-11-04T00:31:14.851Z,9.50
2018-11-04T00:33:45.032Z,9.50
2018-11-04T00:36:14.551Z,9.50
2018-11-04T00:38:44.040Z,9.50
2018-11-04T00:41:13.458Z,9.50
2018-11-04T00:43:42.869Z,9.50
2018-11-04T00:46:12.414Z,9.50
2018-11-04T00:48:41.869Z,9.40
2018-11-04T00:51:12.430Z,9.50
2018-11-04T00:53:42.011Z,9.50
2018-11-04T00:56:11.595Z,9.50
2018-11-04T00:58:42.009Z,9.50
2018-11-04T01:01:11.516Z,9.50
2018-11-04T01:03:42.105Z,9.50
2018-11-04T01:06:11.538Z,9.50
2018-11-04T01:08:42.098Z,9.50
2018-11-04T01:11:11.573Z,9.50
2018-11-04T01:13:41.800Z,9.50
2018-11-04T01:16:13.217Z,9.60
2018-11-04T01:18:42.715Z,9.60
2018-11-04T01:21:12.318Z,9.60
2018-11-04T01:23:41.835Z,9.60
2018-11-04T01:26:13.378Z,9.50
2018-11-04T01:28:42.918Z,9.40
2018-11-04T01:31:12.475Z,9.50
2018-11-04T01:33:42.716Z,9.50
2018-11-04T01:36:12.244Z,9.50
2018-11-04T01:38:41.764Z,9.50
2018-11-04T01:41:11.266Z,9.50
2018-11-04T01:43:40.703Z,9.50
2018-11-04T01:46:10.138Z,9.40
2018-11-04T01:48:39.596Z,9.50
2018-11-04T01:51:09.024Z,9.40
2018-11-04T01:53:38.407Z,9.40
2018-11-04T01:56:08.589Z,9.40
2018-11-04T01:58:37.953Z,9.30
2018-11-04T02:01:07.457Z,9.20
2018-11-04T02:03:36.902Z,9.30
2018-11-04T02:06:06.490Z,9.30
2018-11-04T02:08:35.986Z,9.30
2018-11-04T02:11:05.879Z,9.40
2018-11-04T02:13:35.358Z,9.40
2018-11-04T02:16:04.973Z,9.40
2018-11-04T02:18:34.524Z,9.40
2018-11-04T02:21:03.984Z,9.40
2018-11-04T02:23:33.410Z,9.50
2018-11-04T02:26:02.894Z,9.50
2018-11-04T02:28:32.368Z,9.50
2018-11-04T02:31:01.760Z,9.40
2018-11-04T02:34:41.093Z,9.50
2018-11-04T02:37:10.596Z,9.50
2018-11-04T02:39:40.176Z,9.40
2018-11-04T02:42:09.710Z,9.40
2018-11-04T02:44:39.237Z,9.50
2018-11-04T02:47:08.990Z,9.50
2018-11-04T02:49:38.297Z,9.50
2018-11-04T02:52:07.751Z,9.50
2018-11-04T02:54:37.255Z,9.50
2018-11-04T02:57:06.723Z,9.50
2018-11-04T02:59:36.156Z,9.50
2018-11-04T03:02:07.739Z,9.50
2018-11-04T03:04:37.053Z,9.40
2018-11-04T03:07:07.536Z,9.40
2018-11-04T03:09:37.093Z,9.50
2018-11-04T03:12:06.644Z,9.40
2018-11-04T03:14:36.147Z,9.50
2018-11-04T03:17:06.676Z,9.50
2018-11-04T03:19:36.160Z,9.50
2018-11-04T03:22:06.149Z,9.50
2018-11-04T03:24:35.720Z,9.50
2018-11-04T03:27:05.252Z,9.50
2018-11-04T03:29:34.688Z,9.40
2018-11-04T03:32:04.209Z,9.40
2018-11-04T03:34:33.608Z,9.40
2018-11-04T03:37:03.015Z,9.40
2018-11-04T03:39:32.544Z,9.40
2018-11-04T03:42:01.928Z,9.50
2018-11-04T03:44:31.385Z,9.50
2018-11-04T03:47:00.942Z,9.40
2018-11-04T03:49:37.617Z,9.50
2018-11-04T03:52:07.489Z,9.40
2018-11-04T03:54:37.099Z,9.40
2018-11-04T03:57:06.939Z,9.30
2018-11-04T03:59:37.097Z,9.30
2018-11-04T04:02:07.556Z,9.30
2018-11-04T04:04:36.934Z,9.30
2018-11-04T04:07:06.378Z,9.30
2018-11-04T04:09:35.868Z,9.30
2018-11-04T04:12:05.951Z,9.30
2018-11-04T04:14:35.400Z,9.40
2018-11-04T04:17:04.877Z,9.30
2018-11-04T04:19:35.046Z,9.30
2018-11-04T04:22:06.227Z,9.20
2018-11-04T04:24:36.756Z,9.20
2018-11-04T04:27:07.358Z,9.20
2018-11-04T04:29:36.760Z,9.20
2018-11-04T04:32:07.297Z,9.20
2018-11-04T04:34:37.697Z,9.20
2018-11-04T04:37:07.201Z,9.30
2018-11-04T04:39:36.651Z,9.30
2018-11-04T04:42:06.537Z,9.40
2018-11-04T04:44:35.935Z,9.40
2018-11-04T04:47:05.454Z,9.50
2018-11-04T04:49:35.870Z,9.50
2018-11-04T04:52:05.436Z,9.40
2018-11-04T04:54:34.824Z,9.30
2018-11-04T04:57:05.095Z,9.10
2018-11-04T04:59:35.263Z,9.00
2018-11-04T05:02:04.869Z,9.00
2018-11-04T05:04:34.445Z,8.90
2018-11-04T05:07:03.838Z,8.90
2018-11-04T05:09:33.372Z,8.80
2018-11-04T05:12:02.856Z,8.70
2018-11-04T05:14:33.324Z,8.70
2018-11-04T05:17:02.937Z,8.60
2018-11-04T05:19:32.403Z,8.60
2018-11-04T05:22:02.928Z,8.60
2018-11-04T05:24:32.327Z,8.60
2018-11-04T05:27:01.764Z,8.60
2018-11-04T05:29:31.370Z,8.50
2018-11-04T05:32:00.918Z,8.60
2018-11-04T05:34:30.399Z,8.60
2018-11-04T05:36:59.878Z,8.60
2018-11-04T05:39:30.415Z,8.70
2018-11-04T05:42:00.707Z,8.80
2018-11-04T05:44:30.175Z,8.70
2018-11-04T05:46:59.737Z,8.70
2018-11-04T05:49:31.209Z,8.70
2018-11-04T05:52:00.605Z,8.70
2018-11-04T05:54:30.125Z,8.70
2018-11-04T05:56:59.556Z,8.60
2018-11-04T05:59:29.109Z,8.50
2018-11-04T06:01:59.652Z,8.50
2018-11-04T06:04:29.112Z,8.40
2018-11-04T06:06:58.686Z,8.50
2018-11-04T06:09:28.123Z,8.40
2018-11-04T06:11:58.547Z,8.40
2018-11-04T06:14:28.024Z,8.50
2018-11-04T06:16:57.528Z,8.50
2018-11-04T06:19:27.095Z,8.60
2018-11-04T06:21:56.931Z,8.60
2018-11-04T06:24:30.240Z,8.60
2018-11-04T06:26:59.673Z,8.60
2018-11-04T06:29:29.200Z,8.50
2018-11-04T06:31:58.737Z,8.30
2018-11-04T06:34:28.829Z,8.30
2018-11-04T06:36:59.199Z,8.30
2018-11-04T06:39:29.669Z,8.20
2018-11-04T06:41:59.198Z,8.10
2018-11-04T06:44:28.752Z,8.10
2018-11-04T06:46:58.186Z,8.20
2018-11-04T06:49:27.592Z,8.30
2018-11-04T06:51:57.081Z,8.30
2018-11-04T06:54:26.657Z,8.40
2018-11-04T06:56:57.113Z,8.40
2018-11-04T06:59:26.672Z,8.40
2018-11-04T07:01:56.126Z,8.40
2018-11-04T07:04:27.055Z,8.30
2018-11-04T07:06:56.684Z,8.30
2018-11-04T07:09:27.168Z,8.30
2018-11-04T07:11:56.722Z,8.30
2018-11-04T07:14:26.203Z,8.30
2018-11-04T07:16:55.640Z,8.30
2018-11-04T07:19:25.138Z,8.30
2018-11-04T07:21:54.562Z,8.30
2018-11-04T07:24:24.157Z,8.30
2018-11-04T07:26:53.657Z,8.40
2018-11-04T07:29:23.190Z,8.40
2018-11-04T07:31:53.740Z,8.50
2018-11-04T07:34:23.167Z,8.40
2018-11-04T07:36:52.596Z,8.40
2018-11-04T07:39:22.116Z,8.50
2018-11-04T07:41:51.636Z,8.30
2018-11-04T07:44:21.177Z,8.40
2018-11-04T07:46:50.760Z,8.40
2018-11-04T07:49:20.236Z,8.40
2018-11-04T07:51:49.692Z,8.30
2018-11-04T07:54:21.272Z,8.40
2018-11-04T07:56:50.938Z,8.30
2018-11-04T07:59:20.321Z,8.30
2018-11-04T08:01:49.826Z,8.40
2018-11-04T08:04:19.334Z,8.30
2018-11-04T08:06:50.731Z,8.30
2018-11-04T08:09:20.240Z,8.30
2018-11-04T08:11:49.823Z,8.40
2018-11-04T08:14:19.369Z,8.40
2018-11-04T08:16:48.874Z,8.40
2018-11-04T08:19:18.364Z,8.40
2018-11-04T08:21:47.960Z,8.50
2018-11-04T08:24:17.391Z,8.60
2018-11-04T08:26:48.526Z,8.50
2018-11-04T08:29:18.049Z,8.50
2018-11-04T08:31:48.510Z,8.50
2018-11-04T08:34:18.635Z,8.50
2018-11-04T08:36:49.216Z,8.50
2018-11-04T08:39:18.748Z,8.60
2018-11-04T08:41:53.042Z,8.60
2018-11-04T08:44:22.437Z,8.40
2018-11-04T08:46:52.523Z,8.40
2018-11-04T08:49:22.119Z,8.20
2018-11-04T08:51:53.627Z,8.30
2018-11-04T08:54:23.132Z,8.40
2018-11-04T08:56:52.683Z,8.60
2018-11-04T08:59:22.105Z,8.50
2018-11-04T09:01:51.637Z,8.60
2018-11-04T09:04:21.306Z,8.60
2018-11-04T09:06:50.692Z,8.60
2018-11-04T09:09:20.217Z,8.60
2018-11-04T09:11:49.753Z,8.60
2018-11-04T09:14:19.591Z,8.60
2018-11-04T09:16:49.000Z,8.50
2018-11-04T09:19:18.445Z,8.40
2018-11-04T09:21:48.139Z,8.40
2018-11-04T09:24:17.433Z,8.40
2018-11-04T09:26:47.894Z,8.50
2018-11-04T09:29:17.456Z,8.60
2018-11-04T09:31:46.853Z,8.60
2018-11-04T09:34:16.337Z,8.70
2018-11-04T09:36:45.825Z,8.70
2018-11-04T09:39:15.389Z,8.60
2018-11-04T09:41:44.986Z,8.70
2018-11-04T09:45:16.369Z,8.80
2018-11-04T09:47:45.836Z,8.80
2018-11-04T09:50:16.341Z,8.90
2018-11-04T09:52:45.866Z,9.00
2018-11-04T09:55:15.272Z,9.00
2018-11-04T09:57:44.760Z,9.00
2018-11-04T10:00:14.275Z,9.00
2018-11-04T10:02:43.950Z,9.00
2018-11-04T10:05:13.379Z,9.00
2018-11-04T10:07:43.775Z,9.10
2018-11-04T10:10:14.413Z,9.10
2018-11-04T10:12:45.289Z,9.30
2018-11-04T10:15:14.757Z,9.40
2018-11-04T10:17:45.273Z,9.40
2018-11-04T10:20:15.303Z,9.30
2018-11-04T10:22:44.328Z,9.40
2018-11-04T10:25:16.267Z,9.40
2018-11-04T10:27:45.763Z,9.40
2018-11-04T10:30:16.563Z,9.50
2018-11-04T10:32:46.298Z,9.50
2018-11-04T10:35:15.705Z,9.50
2018-11-04T10:37:45.267Z,9.60
2018-11-04T10:40:14.784Z,9.70
2018-11-04T10:42:45.364Z,9.70
2018-11-04T10:45:14.938Z,9.70
2018-11-04T10:47:44.436Z,9.70
2018-11-04T10:50:17.884Z,9.90
2018-11-04T10:52:47.384Z,10.20
2018-11-04T10:55:17.911Z,10.40
2018-11-04T10:57:49.419Z,10.50
2018-11-04T11:00:25.155Z,10.60
2018-11-04T11:02:54.647Z,10.60
2018-11-04T11:05:24.197Z,10.50
2018-11-04T11:07:53.749Z,10.50
2018-11-04T11:10:24.169Z,10.40
2018-11-04T11:12:55.639Z,10.30
2018-11-04T11:15:25.092Z,10.20
2018-11-04T11:17:55.200Z,10.10
2018-11-04T11:20:25.748Z,10.00
2018-11-04T11:22:55.338Z,10.00
2018-11-04T11:25:24.762Z,9.80
2018-11-04T11:27:54.328Z,9.70
2018-11-04T11:30:23.735Z,9.80
2018-11-04T11:32:53.188Z,9.80
2018-11-04T11:35:22.702Z,9.80
2018-11-04T11:37:53.277Z,9.90
2018-11-04T11:40:22.597Z,9.80
2018-11-04T11:42:52.067Z,9.80
2018-11-04T11:45:21.573Z,9.80
2018-11-04T11:47:51.062Z,10.00
2018-11-04T11:50:20.463Z,10.20
2018-11-04T11:52:49.923Z,10.20
2018-11-04T11:55:20.469Z,10.50
2018-11-04T11:57:49.951Z,10.70
2018-11-04T12:00:19.323Z,10.80
2018-11-04T12:02:48.801Z,10.70
2018-11-04T12:05:18.309Z,10.60
2018-11-04T12:07:47.875Z,10.40
2018-11-04T12:10:17.326Z,10.30
2018-11-04T12:12:46.875Z,10.30
2018-11-04T12:15:16.414Z,10.30
2018-11-04T12:17:45.837Z,10.30
2018-11-04T12:20:16.294Z,10.30
2018-11-04T12:22:45.741Z,10.30
2018-11-04T12:25:15.258Z,10.30
2018-11-04T12:27:45.472Z,10.20
2018-11-04T12:30:15.694Z,10.20
2018-11-04T12:32:45.156Z,10.10
2018-11-04T12:35:14.772Z,10.10
2018-11-04T12:38:44.230Z,10.10
2018-11-04T12:41:13.751Z,10.00
2018-11-04T12:43:43.233Z,10.00
2018-11-04T12:46:13.671Z,10.10
2018-11-04T12:48:43.804Z,10.00
2018-11-04T12:51:13.280Z,10.10
2018-11-04T12:53:42.826Z,10.40
2018-11-04T12:56:12.926Z,10.40
2018-11-04T12:58:42.478Z,10.40
2018-11-04T13:01:11.934Z,10.40
2018-11-04T13:03:41.367Z,10.50
2018-11-04T13:06:10.924Z,10.60
2018-11-04T13:08:41.165Z,10.40
2018-11-04T13:11:10.624Z,10.50
2018-11-04T13:13:40.083Z,10.70
2018-11-04T13:16:12.622Z,10.70
2018-11-04T13:18:42.455Z,10.70
2018-11-04T13:21:11.995Z,10.60
2018-11-04T13:23:41.521Z,10.30
2018-11-04T13:26:11.005Z,10.40
2018-11-04T13:28:40.400Z,10.30
2018-11-04T13:31:09.882Z,10.10
2018-11-04T13:33:39.378Z,10.20
2018-11-04T13:36:09.192Z,10.10
2018-11-04T13:38:38.578Z,10.20
2018-11-04T13:41:08.083Z,10.40
2018-11-04T13:43:37.477Z,10.50
2018-11-04T13:46:08.518Z,10.40
2018-11-04T13:48:41.920Z,10.50
2018-11-04T13:51:11.439Z,10.50
2018-11-04T13:53:40.979Z,10.40
2018-11-04T13:56:10.426Z,10.40
2018-11-04T13:58:39.894Z,10.50
2018-11-04T14:01:09.364Z,10.50
2018-11-04T14:03:38.813Z,10.60
2018-11-04T14:06:08.236Z,10.60
2018-11-04T14:08:37.736Z,10.50
2018-11-04T14:11:07.186Z,10.50
2018-11-04T14:13:36.672Z,10.50
2018-11-04T14:16:06.127Z,10.60
2018-11-04T14:18:35.677Z,10.50
2018-11-04T14:21:05.454Z,10.50
2018-11-04T14:23:35.161Z,10.50
2018-11-04T14:26:04.796Z,10.50
2018-11-04T14:28:34.195Z,10.60
2018-11-04T14:31:03.736Z,10.60
2018-11-04T14:33:33.188Z,10.50
2018-11-04T14:36:02.747Z,10.60
2018-11-04T14:38:32.227Z,10.60
2018-11-04T14:41:05.168Z,10.50
2018-11-04T14:43:39.536Z,10.50
2018-11-04T14:46:09.064Z,10.50
2018-11-04T14:48:38.619Z,10.40
2018-11-04T14:51:09.182Z,10.40
2018-11-04T14:53:38.995Z,10.30
2018-11-04T14:56:08.393Z,10.40
2018-11-04T14:58:38.855Z,10.30
2018-11-04T15:01:08.452Z,10.20
2018-11-04T15:03:38.364Z,10.10
2018-11-04T15:06:08.002Z,10.10
2018-11-04T15:08:37.428Z,10.10
2018-11-04T15:11:07.057Z,10.10
2018-11-04T15:13:36.454Z,10.10
2018-11-04T15:16:06.266Z,10.20
2018-11-04T15:18:35.746Z,10.20
2018-11-04T15:21:07.281Z,10.10
2018-11-04T15:23:36.750Z,10.00
2018-11-04T15:26:07.021Z,10.00
2018-11-04T15:28:36.637Z,9.90
2018-11-04T15:31:06.814Z,10.00
2018-11-04T15:33:36.328Z,9.90
2018-11-04T15:36:06.558Z,9.80
2018-11-04T15:38:36.157Z,9.80
2018-11-04T15:41:05.864Z,9.70
2018-11-04T15:43:35.267Z,9.70
2018-11-04T15:46:04.848Z,9.70
2018-11-04T15:48:34.318Z,9.70
2018-11-04T15:51:03.852Z,9.70
2018-11-04T15:53:34.335Z,9.70
2018-11-04T15:56:03.852Z,9.70
2018-11-04T15:58:33.498Z,9.60
2018-11-04T16:01:02.999Z,9.50
2018-11-04T16:03:33.482Z,9.50
2018-11-04T16:06:03.109Z,9.50
2018-11-04T16:08:32.641Z,9.50
2018-11-04T16:11:02.221Z,9.50
2018-11-04T16:13:31.745Z,9.50
2018-11-04T16:16:01.317Z,9.50
2018-11-04T16:18:31.214Z,9.40
2018-11-04T16:21:00.752Z,9.40
2018-11-04T16:23:31.233Z,9.50
2018-11-04T16:26:01.732Z,9.50
2018-11-04T16:28:31.356Z,9.50
2018-11-04T16:31:00.859Z,9.40
2018-11-04T16:33:30.481Z,9.40
2018-11-04T16:36:00.571Z,9.30
2018-11-04T16:38:30.190Z,9.30
2018-11-04T16:40:59.800Z,9.40
2018-11-04T16:43:29.412Z,9.30
2018-11-04T16:45:58.795Z,9.40
2018-11-04T16:48:28.268Z,9.40
2018-11-04T16:50:57.758Z,9.30
2018-11-04T16:53:27.206Z,9.30
2018-11-04T16:55:56.706Z,9.30
2018-11-04T16:58:26.123Z,9.30
2018-11-04T17:00:55.607Z,9.30
2018-11-04T17:03:25.020Z,9.30
2018-11-04T17:05:54.522Z,9.30
2018-11-04T17:08:23.925Z,9.30
2018-11-04T17:10:53.323Z,9.30
2018-11-04T17:13:22.815Z,9.20
2018-11-04T17:15:54.243Z,9.30
2018-11-04T17:18:24.791Z,9.30
2018-11-04T17:20:54.378Z,9.20
2018-11-04T17:23:24.982Z,9.30
2018-11-04T17:25:54.536Z,9.30
2018-11-04T17:28:25.003Z,9.30
2018-11-04T17:30:54.486Z,9.30
2018-11-04T17:33:24.021Z,9.20
2018-11-04T17:35:54.540Z,9.30
2018-11-04T17:38:23.926Z,9.30
2018-11-04T17:40:53.445Z,9.30
2018-11-04T17:43:22.992Z,9.30
2018-11-04T17:45:52.544Z,9.30
2018-11-04T17:48:22.009Z,9.30
2018-11-04T17:50:51.530Z,9.30
2018-11-04T17:53:21.160Z,9.30
2018-11-04T17:55:50.653Z,9.40
2018-11-04T17:58:20.205Z,9.30
2018-11-04T18:00:49.750Z,9.40
2018-11-04T18:03:19.200Z,9.40
2018-11-04T18:05:48.620Z,9.30
2018-11-04T18:08:18.152Z,9.30
2018-11-04T18:10:47.648Z,9.30
2018-11-04T18:13:17.049Z,9.30
2018-11-04T18:15:46.515Z,9.30
2018-11-04T18:18:15.879Z,9.30
2018-11-04T18:20:45.420Z,9.30
2018-11-04T18:23:14.876Z,9.30
2018-11-04T18:25:44.326Z,9.30
2018-11-04T18:28:14.004Z,9.30
2018-11-04T18:30:44.491Z,9.30
2018-11-04T18:33:14.013Z,9.30
2018-11-04T18:35:43.492Z,9.40
2018-11-04T18:38:13.037Z,9.40
2018-11-04T18:40:42.461Z,9.40
2018-11-04T18:43:11.944Z,9.40
2018-11-04T18:45:41.327Z,9.30
2018-11-04T18:48:10.794Z,9.40
2018-11-04T18:50:40.288Z,9.40
2018-11-04T18:53:09.613Z,9.50
2018-11-04T18:55:39.073Z,9.50
2018-11-04T18:58:08.460Z,9.50
2018-11-04T19:00:37.978Z,9.60
2018-11-04T19:03:07.586Z,9.50
2018-11-04T19:05:37.133Z,9.60
2018-11-04T19:08:06.638Z,9.60
2018-11-04T19:10:36.212Z,9.60
2018-11-04T19:13:05.696Z,9.60
2018-11-04T19:15:35.371Z,9.60
2018-11-04T19:18:04.835Z,9.60
2018-11-04T19:20:34.304Z,9.60
2018-11-04T19:23:03.904Z,9.60
2018-11-04T19:25:33.304Z,9.60
2018-11-04T19:28:02.769Z,9.60
2018-11-04T19:30:32.231Z,9.60
2018-11-04T19:33:01.773Z,9.60
2018-11-04T19:35:31.166Z,9.50
2018-11-04T19:38:00.674Z,9.60
2018-11-04T19:40:30.188Z,9.60
2018-11-04T19:42:59.725Z,9.50
2018-11-04T19:45:29.213Z,9.60
2018-11-04T19:47:58.770Z,9.50
2018-11-04T19:52:05.847Z,9.60
2018-11-04T19:54:35.373Z,9.50
2018-11-04T19:57:04.910Z,9.60
2018-11-04T19:59:34.309Z,9.60
2018-11-04T20:02:03.746Z,9.50
2018-11-04T20:04:33.299Z,9.60
2018-11-04T20:07:02.763Z,9.60
2018-11-04T20:09:32.260Z,9.70
2018-11-04T20:12:01.739Z,9.60
2018-11-04T20:14:31.129Z,9.70
2018-11-04T20:17:01.563Z,9.70
2018-11-04T20:19:36.510Z,9.70
2018-11-04T20:22:05.852Z,9.70
2018-11-04T20:24:40.601Z,9.70
2018-11-04T20:27:10.985Z,9.70
2018-11-04T20:29:40.409Z,9.70
2018-11-04T20:32:15.022Z,9.60
2018-11-04T20:34:44.427Z,9.60
2018-11-04T20:37:13.943Z,9.50
2018-11-04T20:39:48.536Z,9.50
2018-11-04T20:42:17.997Z,9.40
2018-11-04T20:44:49.168Z,9.50
2018-11-04T20:47:18.580Z,9.50
2018-11-04T20:49:53.059Z,9.50
2018-11-04T20:52:22.552Z,9.50
2018-11-04T20:54:52.038Z,9.50
2018-11-04T20:57:26.684Z,9.50
2018-11-04T20:59:56.157Z,9.50
2018-11-04T21:02:25.837Z,9.50
2018-11-04T21:04:55.208Z,9.50
2018-11-04T21:07:24.701Z,9.50
2018-11-04T21:09:54.231Z,9.30
2018-11-04T21:12:23.641Z,9.40
2018-11-04T21:14:53.079Z,9.30
2018-11-04T21:17:22.497Z,9.30
2018-11-04T21:19:52.197Z,9.20
2018-11-04T21:22:22.700Z,9.30
2018-11-04T21:24:52.982Z,9.30
2018-11-04T21:27:22.319Z,9.20
2018-11-04T21:29:51.871Z,9.20
2018-11-04T21:32:21.250Z,9.20
2018-11-04T21:34:55.189Z,9.20
2018-11-04T21:37:25.051Z,9.10
2018-11-04T21:39:55.613Z,9.10
2018-11-04T21:42:25.286Z,9.10
2018-11-04T21:45:00.879Z,9.10
2018-11-04T21:47:30.313Z,9.20
2018-11-04T21:49:59.853Z,9.20
2018-11-04T21:52:29.303Z,9.30
2018-11-04T21:54:58.742Z,9.30
2018-11-04T21:57:28.133Z,9.30
2018-11-04T21:59:59.657Z,9.20
2018-11-04T22:02:29.162Z,9.30
2018-11-04T22:04:58.672Z,9.20
2018-11-04T22:07:28.235Z,9.20
2018-11-04T22:09:57.617Z,9.00
2018-11-04T22:12:27.071Z,9.00
2018-11-04T22:14:58.827Z,9.00
2018-11-04T22:17:28.241Z,9.00
2018-11-04T22:20:00.808Z,9.00
2018-11-04T22:22:30.401Z,9.00
2018-11-04T22:24:59.768Z,8.90
2018-11-04T22:27:29.187Z,8.90
2018-11-04T22:29:58.695Z,8.90
2018-11-04T22:32:29.209Z,8.90
2018-11-04T22:34:59.628Z,8.80
2018-11-04T22:37:29.015Z,8.80
2018-11-04T22:39:59.472Z,8.70
2018-11-04T22:42:28.959Z,8.70
2018-11-04T22:44:58.355Z,8.60
2018-11-04T22:47:27.902Z,8.60
2018-11-04T22:49:57.326Z,8.60
2018-11-04T22:52:26.884Z,8.60
2018-11-04T22:54:56.270Z,8.60
2018-11-04T22:57:25.700Z,8.60
2018-11-04T22:59:56.166Z,8.60
2018-11-04T23:02:25.744Z,8.50
2018-11-04T23:05:01.107Z,8.50
2018-11-04T23:07:30.578Z,8.50
2018-11-04T23:09:59.973Z,8.50
2018-11-04T23:12:29.525Z,8.50
2018-11-04T23:14:59.108Z,8.50
2018-11-04T23:17:28.579Z,8.50
2018-11-04T23:19:58.110Z,8.50
2018-11-04T23:22:27.480Z,8.50
2018-11-04T23:24:56.953Z,8.50
2018-11-04T23:27:26.468Z,8.40
2018-11-04T23:29:56.051Z,8.40
2018-11-04T23:32:25.592Z,8.40
2018-11-04T23:34:55.099Z,8.40
2018-11-04T23:37:24.623Z,8.40
2018-11-04T23:39:54.059Z,8.40
2018-11-04T23:42:23.530Z,8.40
2018-11-04T23:44:52.946Z,8.40
2018-11-04T23:47:22.522Z,8.40
2018-11-04T23:49:51.965Z,8.40
2018-11-04T23:52:22.213Z,8.40
2018-11-04T23:54:53.800Z,8.50
2018-11-04T23:57:23.307Z,8.60
2018-11-04T23:59:54.425Z,8.60
